createdAt,value
2019-01-10T00:04:51.550Z,72.10
2019-01-10T00:09:52.798Z,73.30
2019-01-10T00:14:54.049Z,73.20
2019-01-10T00:19:55.286Z,72.90
2019-01-10T00:24:56.537Z,74.20
2019-01-10T00:29:57.784Z,76.00
2019-01-10T00:34:59.428Z,75.80
2019-01-10T00:40:00.772Z,74.50
2019-01-10T00:45:05.734Z,74.00
2019-01-10T00:50:14.240Z,74.70
2019-01-10T00:55:15.863Z,75.60
2019-01-10T01:00:21.188Z,74.50
2019-01-10T01:05:22.946Z,73.40
2019-01-10T01:10:26.412Z,73.40
2019-01-10T01:15:27.666Z,72.90
2019-01-10T01:20:29.129Z,73.00
2019-01-10T01:25:30.377Z,72.20
2019-01-10T01:30:31.921Z,74.90
2019-01-10T01:35:33.135Z,73.20
2019-01-10T01:40:34.383Z,74.80
2019-01-10T01:45:35.624Z,75.00
2019-01-10T01:50:36.895Z,75.50
2019-01-10T01:55:38.321Z,74.40
2019-01-10T02:00:39.753Z,77.30
2019-01-10T02:05:41.187Z,74.80
2019-01-10T02:10:42.396Z,75.70
2019-01-10T02:15:43.631Z,75.40
2019-01-10T02:20:44.967Z,76.40
2019-01-10T02:25:46.192Z,74.80
2019-01-10T02:30:47.435Z,74.50
2019-01-10T02:35:48.665Z,75.40
2019-01-10T02:40:49.884Z,76.10
2019-01-10T02:45:51.120Z,77.10
2019-01-10T02:50:52.377Z,76.50
2019-01-10T02:55:53.592Z,75.30
2019-01-10T03:00:54.839Z,75.30
2019-01-10T03:05:56.188Z,76.00
2019-01-10T03:10:57.408Z,77.80
2019-01-10T03:15:58.735Z,76.60
2019-01-10T03:20:59.957Z,78.30
2019-01-10T03:26:01.166Z,78.40
2019-01-10T03:31:02.870Z,79.20
2019-01-10T03:36:04.405Z,77.90
2019-01-10T03:41:05.620Z,78.90
2019-01-10T03:46:06.875Z,79.90
2019-01-10T03:51:08.108Z,80.20
2019-01-10T03:56:09.335Z,78.90
2019-01-10T04:01:10.571Z,78.60
2019-01-10T04:06:11.823Z,78.70
2019-01-10T04:11:13.056Z,77.70
2019-01-10T04:16:14.318Z,78.00
2019-01-10T04:21:17.523Z,77.60
2019-01-10T04:26:18.722Z,77.80
2019-01-10T04:31:19.977Z,78.20
2019-01-10T04:36:21.202Z,78.80
2019-01-10T04:41:22.468Z,80.80
2019-01-10T04:46:23.701Z,79.50
2019-01-10T04:51:24.940Z,78.60
2019-01-10T04:56:26.175Z,77.50
2019-01-10T05:01:27.421Z,78.80
2019-01-10T05:06:28.644Z,80.60
2019-01-10T05:11:29.880Z,78.90
2019-01-10T05:16:31.112Z,77.70
2019-01-10T05:21:32.436Z,79.50
2019-01-10T05:26:33.683Z,79.10
2019-01-10T05:31:34.930Z,78.50
2019-01-10T05:36:36.155Z,78.10
2019-01-10T05:41:37.388Z,82.00
2019-01-10T05:46:48.120Z,81.60
2019-01-10T05:51:41.768Z,82.70
2019-01-10T05:56:43.029Z,81.60
2019-01-10T06:01:44.259Z,81.80
2019-01-10T06:06:45.517Z,82.70
2019-01-10T06:11:46.761Z,85.80
2019-01-10T06:16:48.000Z,85.00
2019-01-10T06:21:49.355Z,86.90
2019-01-10T06:26:50.590Z,86.20
2019-01-10T06:31:51.833Z,84.80
2019-01-10T06:36:53.064Z,86.20
2019-01-10T06:41:54.296Z,84.40
2019-01-10T06:46:55.535Z,83.50
2019-01-10T06:51:56.768Z,85.70
2019-01-10T06:56:58.025Z,84.90
2019-01-10T07:01:59.362Z,84.90
2019-01-10T07:07:00.589Z,82.10
2019-01-10T07:12:01.950Z,84.00
2019-01-10T07:17:03.209Z,83.30
2019-01-10T07:22:04.455Z,84.00
2019-01-10T07:27:05.755Z,85.40
2019-01-10T07:32:07.174Z,84.30
2019-01-10T07:37:12.920Z,83.70
2019-01-10T07:42:11.612Z,83.90
2019-01-10T07:47:12.835Z,82.70
2019-01-10T07:52:14.082Z,81.80
2019-01-10T07:57:15.336Z,81.90
2019-01-10T08:02:16.565Z,83.60
2019-01-10T08:07:17.814Z,84.10
2019-01-10T08:12:19.074Z,82.70
2019-01-10T08:17:20.336Z,81.90
2019-01-10T08:22:27.701Z,81.30
2019-01-10T08:27:24.756Z,81.00
2019-01-10T08:32:26.027Z,80.60
2019-01-10T08:37:27.269Z,79.70
2019-01-10T08:42:28.510Z,79.70
2019-01-10T08:47:29.748Z,79.20
2019-01-10T08:52:31.013Z,76.20
2019-01-10T08:57:32.351Z,76.90
2019-01-10T09:02:33.599Z,77.80
2019-01-10T09:07:34.955Z,77.90
2019-01-10T09:12:36.313Z,76.60
2019-01-10T09:17:37.676Z,74.20
2019-01-10T09:22:38.954Z,77.40
2019-01-10T09:27:40.610Z,76.50
2019-01-10T09:32:42.164Z,74.70
2019-01-10T09:37:43.654Z,73.60
2019-01-10T09:42:45.835Z,75.70
2019-01-10T09:47:47.277Z,73.40
2019-01-10T09:52:49.015Z,74.40
2019-01-10T09:57:50.252Z,72.40
2019-01-10T10:02:51.723Z,72.60
2019-01-10T10:07:53.153Z,72.80
2019-01-10T10:12:54.416Z,72.40
2019-01-10T10:17:55.767Z,72.90
2019-01-10T10:22:57.137Z,71.80
2019-01-10T10:27:58.540Z,73.10
2019-01-10T10:32:59.801Z,72.10
2019-01-10T10:38:01.177Z,72.10
2019-01-10T10:43:02.927Z,72.30
2019-01-10T10:48:04.183Z,71.30
2019-01-10T10:53:05.673Z,72.00
2019-01-10T10:58:07.130Z,71.50
2019-01-10T11:03:08.490Z,70.40
2019-01-10T11:08:09.765Z,71.60
2019-01-10T11:13:11.025Z,69.30
2019-01-10T11:18:12.369Z,71.10
2019-01-10T11:23:13.615Z,71.80
2019-01-10T11:28:14.869Z,71.40
2019-01-10T11:33:16.138Z,71.00
2019-01-10T11:38:17.372Z,71.30
2019-01-10T11:43:18.641Z,63.30
2019-01-10T11:48:19.885Z,60.80
2019-01-10T11:53:21.120Z,61.20
2019-01-10T11:58:22.374Z,61.30
2019-01-10T12:03:23.615Z,59.80
2019-01-10T12:08:24.842Z,61.40
2019-01-10T12:13:26.080Z,65.20
2019-01-10T12:18:27.346Z,66.00
2019-01-10T12:23:28.597Z,63.70
2019-01-10T12:28:29.850Z,61.50
2019-01-10T12:33:31.105Z,64.40
2019-01-10T12:38:32.449Z,59.60
2019-01-10T12:43:33.808Z,63.20
2019-01-10T12:48:35.062Z,64.60
2019-01-10T12:53:36.291Z,62.70
2019-01-10T12:58:37.542Z,64.90
2019-01-10T13:03:39.542Z,66.00
2019-01-10T13:08:41.638Z,67.50
2019-01-10T13:13:44.736Z,69.00
2019-01-10T13:18:46.983Z,67.60
2019-01-10T13:23:48.737Z,69.80
2019-01-10T13:28:51.567Z,69.20
2019-01-10T13:33:53.711Z,68.90
2019-01-10T13:38:56.528Z,65.70
2019-01-10T13:43:58.839Z,65.50
2019-01-10T13:49:00.810Z,66.50
2019-01-10T13:54:03.625Z,64.50
2019-01-10T13:59:05.885Z,60.20
2019-01-10T14:04:07.876Z,59.00
2019-01-10T14:09:10.326Z,59.90
2019-01-10T14:14:12.528Z,58.20
2019-01-10T14:19:14.419Z,60.60
2019-01-10T14:24:16.431Z,61.60
2019-01-10T14:29:18.278Z,60.70
2019-01-10T14:34:20.071Z,58.90
2019-01-10T14:39:21.933Z,61.40
2019-01-10T14:44:23.739Z,62.10
2019-01-10T14:49:25.666Z,61.30
2019-01-10T14:54:28.383Z,62.20
2019-01-10T14:59:30.496Z,58.70
2019-01-10T15:04:32.292Z,58.90
2019-01-10T15:09:34.294Z,60.30
2019-01-10T15:14:36.508Z,60.00
2019-01-10T15:25:14.703Z,60.80
2019-01-10T15:30:25.395Z,61.80
2019-01-10T15:35:26.823Z,62.40
2019-01-10T15:40:30.180Z,61.30
2019-01-10T15:45:31.540Z,61.00
2019-01-10T15:50:32.760Z,61.20
2019-01-10T15:55:34.216Z,61.30
2019-01-10T16:00:35.568Z,63.70
2019-01-10T16:05:36.854Z,63.70
2019-01-10T16:10:38.091Z,62.30
2019-01-10T16:15:39.347Z,64.30
2019-01-10T16:20:41.421Z,63.10
2019-01-10T16:25:43.330Z,63.90
2019-01-10T16:30:45.004Z,64.30
2019-01-10T16:35:47.549Z,65.60
2019-01-10T16:40:50.233Z,66.80
2019-01-10T16:45:52.042Z,68.20
2019-01-10T16:50:54.095Z,66.80
2019-01-10T16:55:56.092Z,66.50
2019-01-10T17:00:58.658Z,65.80
2019-01-10T17:06:00.683Z,66.20
2019-01-10T17:11:02.538Z,67.10
2019-01-10T17:16:08.306Z,67.40
2019-01-10T17:21:10.199Z,67.00
2019-01-10T17:26:12.034Z,65.80
2019-01-10T17:31:14.264Z,66.50
2019-01-10T17:36:18.557Z,68.80
2019-01-10T17:41:20.223Z,69.70
2019-01-10T17:46:22.107Z,69.40
2019-01-10T17:51:24.094Z,70.00
2019-01-10T17:56:26.347Z,70.90
2019-01-10T18:01:28.187Z,73.10
2019-01-10T18:06:30.217Z,72.10
2019-01-10T18:11:32.003Z,74.40
2019-01-10T18:16:34.079Z,74.80
2019-01-10T18:21:35.967Z,74.50
2019-01-10T18:26:38.280Z,73.50
2019-01-10T18:31:40.114Z,74.20
2019-01-10T18:36:41.816Z,73.20
2019-01-10T18:41:43.775Z,73.00
2019-01-10T18:46:45.628Z,72.00
2019-01-10T18:51:47.625Z,72.40
2019-01-10T18:56:49.301Z,72.50
2019-01-10T19:01:51.070Z,73.60
2019-01-10T19:06:53.072Z,74.40
2019-01-10T19:11:54.904Z,75.10
2019-01-10T19:16:56.814Z,75.60
2019-01-10T19:21:58.829Z,75.80
2019-01-10T19:27:00.646Z,75.40
2019-01-10T19:32:02.387Z,76.50
2019-01-10T19:37:04.326Z,76.00
2019-01-10T19:42:06.219Z,77.20
2019-01-10T19:47:08.356Z,75.60
2019-01-10T19:52:09.965Z,74.60
2019-01-10T19:57:12.144Z,76.70
2019-01-10T20:02:14.188Z,76.50
2019-01-10T20:07:16.207Z,81.70
2019-01-10T20:12:18.153Z,85.40
2019-01-10T20:17:19.914Z,80.50
2019-01-10T20:22:21.964Z,77.60
2019-01-10T20:27:23.984Z,77.70
2019-01-10T20:32:27.708Z,80.40
2019-01-10T20:37:29.657Z,79.40
2019-01-10T20:42:31.945Z,80.10
2019-01-10T20:47:34.206Z,79.40
2019-01-10T20:52:36.207Z,78.10
2019-01-10T20:57:38.254Z,79.40
2019-01-10T21:02:42.933Z,81.30
2019-01-10T21:07:46.694Z,82.10
2019-01-10T21:12:49.335Z,83.40
2019-01-10T21:17:51.524Z,83.40
2019-01-10T21:22:53.229Z,83.40
2019-01-10T21:27:54.484Z,81.80
2019-01-10T21:32:55.745Z,81.20
2019-01-10T21:37:57.237Z,81.90
2019-01-10T21:42:58.494Z,81.60
2019-01-10T21:47:59.749Z,80.50
2019-01-10T21:53:01.006Z,79.50
2019-01-10T21:58:04.068Z,78.80
2019-01-10T22:03:05.533Z,78.90
2019-01-10T22:08:07.473Z,78.80
2019-01-10T22:13:08.716Z,78.80
2019-01-10T22:18:09.958Z,77.70
2019-01-10T22:23:11.326Z,77.80
2019-01-10T22:28:12.573Z,77.70
2019-01-10T22:33:14.040Z,77.80
2019-01-10T22:38:15.315Z,79.60
2019-01-10T22:43:16.593Z,81.00
2019-01-10T22:48:17.866Z,82.10
2019-01-10T22:53:19.221Z,83.00
2019-01-10T22:58:20.496Z,83.00
2019-01-10T23:03:21.979Z,83.70
2019-01-10T23:08:23.448Z,83.90
2019-01-10T23:13:24.813Z,84.40
2019-01-10T23:18:26.086Z,84.50
2019-01-10T23:23:27.449Z,84.20
2019-01-10T23:28:28.712Z,84.00
2019-01-10T23:33:29.976Z,83.10
2019-01-10T23:38:31.273Z,83.70
2019-01-10T23:43:32.507Z,84.70
2019-01-10T23:48:33.768Z,85.70
2019-01-10T23:53:35.220Z,85.40
2019-01-10T23:58:36.477Z,85.00
